Shirahamamaru — JG4872 — position and weather

sailwx.info

Track history (hours):
 
Tides and Currents Weather Stations Pressure Air Temp Water Temp Dewpoint Dewpoint Depression Visibility Wind Speed Wind Dir Waves Ship Positions

Shirahamamaru

Last reported at 2014-Dec-21 11:11 UTC. Time now 2014-Dec-21 19:24 UTC.
Position N 35°13' E 139°43'.

Length 79 m; draft 3.2 m.

Type: Passenger vessel. MMSI: 431000239.

Date/timePositionNaut miles runAvg speedWind from/ knotsBaromVisibWave heightAir tempDewpointWater temp
2014-Dec-21 11:11N 35°13' E 139°43'6 9.2
2014-Dec-21 10:33N 35°10' E 139°49'4 3.9
2014-Dec-21 09:33N 35°13' E 139°46'2 2.1
2014-Dec-21 08:34N 35°11' E 139°47'4 3.3
2014-Dec-21 07:21N 35°13' E 139°43'4 4.8
2014-Dec-21 06:33N 35°11' E 139°47'4 3.2
2014-Dec-21 05:20N 35°13' E 139°43'5 5.0
2014-Dec-21 04:25N 35°11' E 139°48'2 2.4
2014-Dec-21 03:32N 35°12' E 139°46'1 1.4
2014-Dec-21 02:34N 35°12' E 139°47'3 3.0
2014-Dec-21 01:29N 35°13' E 139°44'3 3.5
2014-Dec-21 00:33N 35°12' E 139°47'3 2.5
2014-Dec-20 23:31N 35°13' E 139°44'2 1.6
2014-Dec-20 22:33N 35°12' E 139°46'2 1.6
2014-Dec-20 21:33N 35°13' E 139°44'1 0.1
2014-Dec-20 09:15N 35°13' E 139°43'4 5.3
2014-Dec-20 08:32N 35°11' E 139°47'2 2.2
2014-Dec-20 07:33N 35°13' E 139°45'2 2.2
2014-Dec-20 06:33N 35°11' E 139°47'3 2.5
2014-Dec-20 05:31N 35°13' E 139°44'2 1.9
2014-Dec-20 04:33N 35°12' E 139°46'2 1.6
2014-Dec-20 03:26N 35°13' E 139°44'3 2.9
2014-Dec-20 02:33N 35°12' E 139°47'3 2.5
2014-Dec-20 01:31N 35°13' E 139°44'3 2.8
2014-Dec-20 00:33N 35°11' E 139°47'3 2.7
2014-Dec-19 23:31N 35°13' E 139°44'2 1.9
2014-Dec-19 22:33N 35°12' E 139°46'1 1.2
2014-Dec-19 21:33N 35°13' E 139°45'1 0.1
2014-Dec-19 05:31N 35°13' E 139°44'  
Track history (hours):
 
Tides and Currents Weather Stations Pressure Air Temp Water Temp Dewpoint Dewpoint Depression Visibility Wind Speed Wind Dir Waves Ship Positions

Shirahamamaru

Last reported at 2014-Dec-21 11:11 UTC. Time now 2014-Dec-21 19:24 UTC.
Position N 35°13' E 139°43'.

Length 79 m; draft 3.2 m.

Type: Passenger vessel. MMSI: 431000239.

Date/timePositionNaut miles runAvg speedWind from/ knotsBaromVisibWave heightAir tempDewpointWater temp
2014-Dec-21 11:11N 35°13' E 139°43'6 9.2
2014-Dec-21 10:33N 35°10' E 139°49'4 3.9
2014-Dec-21 09:33N 35°13' E 139°46'2 2.1
2014-Dec-21 08:34N 35°11' E 139°47'4 3.3
2014-Dec-21 07:21N 35°13' E 139°43'4 4.8
2014-Dec-21 06:33N 35°11' E 139°47'4 3.2
2014-Dec-21 05:20N 35°13' E 139°43'5 5.0
2014-Dec-21 04:25N 35°11' E 139°48'2 2.4
2014-Dec-21 03:32N 35°12' E 139°46'1 1.4
2014-Dec-21 02:34N 35°12' E 139°47'3 3.0
2014-Dec-21 01:29N 35°13' E 139°44'3 3.5
2014-Dec-21 00:33N 35°12' E 139°47'3 2.5
2014-Dec-20 23:31N 35°13' E 139°44'2 1.6
2014-Dec-20 22:33N 35°12' E 139°46'2 1.6
2014-Dec-20 21:33N 35°13' E 139°44'1 0.1
2014-Dec-20 09:15N 35°13' E 139°43'4 5.3
2014-Dec-20 08:32N 35°11' E 139°47'2 2.2
2014-Dec-20 07:33N 35°13' E 139°45'2 2.2
2014-Dec-20 06:33N 35°11' E 139°47'3 2.5
2014-Dec-20 05:31N 35°13' E 139°44'2 1.9
2014-Dec-20 04:33N 35°12' E 139°46'2 1.6
2014-Dec-20 03:26N 35°13' E 139°44'3 2.9
2014-Dec-20 02:33N 35°12' E 139°47'3 2.5
2014-Dec-20 01:31N 35°13' E 139°44'3 2.8
2014-Dec-20 00:33N 35°11' E 139°47'3 2.7
2014-Dec-19 23:31N 35°13' E 139°44'2 1.9
2014-Dec-19 22:33N 35°12' E 139°46'1 1.2
2014-Dec-19 21:33N 35°13' E 139°45'1 0.1
2014-Dec-19 05:31N 35°13' E 139°44'  

Dump ship's entire track history